Time;durP1;ratioP1;P1;durP2;ratioP2;P2;SDS_P1;SDS_P2;PMS_P1;PMS_P2;Temp;Humidity;BMP_temperature;BMP_pressure;BME280_temperature;BME280_humidity;BME280_pressure;Samples;Min_cycle;Max_cycle;Signal;HPM_P1;HPM_P2
2021/12/10 00:01:31;;;;;;;4.30;1.27;;;;;;;;;;4942876;28;20050;-72
2021/12/10 00:03:59;;;;;;;2.47;1.17;;;;;;;;;;4942430;28;20043;-72
2021/12/10 00:06:30;;;;;;;2.80;1.38;;;;;;;;;;4945322;28;20545;-72
2021/12/10 00:09:05;;;;;;;5.10;1.42;;;;;;;;;;4943665;28;20050;-73
2021/12/10 00:11:48;;;;;;;2.38;1.27;;;;;;;;;;4942600;28;20054;-72
2021/12/10 00:14:14;;;;;;;1.60;1.20;;;;;;;;;;4941855;28;20051;-72
2021/12/10 00:16:41;;;;;;;2.80;1.45;;;;;;;;;;4940779;28;20421;-72
2021/12/10 00:21:39;;;;;;;6.28;1.50;;;;;;;;;;4941786;28;20473;-73
2021/12/10 00:24:05;;;;;;;4.72;1.45;;;;;;;;;;4941530;28;20046;-73
2021/12/10 00:26:30;;;;;;;7.07;1.25;;;;;;;;;;4942270;28;20031;-72
2021/12/10 00:29:02;;;;;;;1.58;1.23;;;;;;;;;;4941830;28;20604;-72
2021/12/10 00:34:09;;;;;;;6.30;1.55;;;;;;;;;;4942679;28;20097;-72
2021/12/10 00:36:36;;;;;;;1.90;1.45;;;;;;;;;;4942072;28;20039;-73
2021/12/10 00:39:07;;;;;;;4.00;1.30;;;;;;;;;;4941823;28;20035;-72
2021/12/10 00:41:32;;;;;;;3.33;1.52;;;;;;;;;;4941970;28;20443;-72
2021/12/10 00:43:58;;;;;;;2.17;1.42;;;;;;;;;;4941587;28;20058;-73
2021/12/10 00:46:23;;;;;;;11.38;1.90;;;;;;;;;;4941613;28;20042;-73
2021/12/10 00:48:49;;;;;;;1.65;1.40;;;;;;;;;;4941815;28;20043;-71
2021/12/10 00:51:14;;;;;;;2.55;1.70;;;;;;;;;;4941966;28;20050;-72
2021/12/10 00:53:41;;;;;;;2.58;1.40;;;;;;;;;;4939847;28;20043;-74
2021/12/10 00:56:09;;;;;;;4.68;1.85;;;;;;;;;;4940867;28;20053;-72
2021/12/10 00:58:36;;;;;;;3.22;1.90;;;;;;;;;;4941467;28;20181;-72
2021/12/10 01:01:10;;;;;;;2.60;2.05;;;;;;;;;;4941495;28;20051;-72
2021/12/10 01:03:41;;;;;;;3.28;2.00;;;;;;;;;;4941086;28;20097;-72
2021/12/10 01:06:11;;;;;;;3.95;2.13;;;;;;;;;;4942116;28;20039;-71
2021/12/10 01:08:41;;;;;;;5.57;1.88;;;;;;;;;;4941305;28;20058;-72
2021/12/10 01:11:11;;;;;;;2.72;1.52;;;;;;;;;;4941547;28;20751;-71
2021/12/10 01:13:40;;;;;;;6.63;1.73;;;;;;;;;;4940988;28;20036;-71
2021/12/10 01:24:31;;;;;;;1.75;1.58;;;;;;;;;;4940658;28;20505;-72
2021/12/10 01:27:02;;;;;;;2.47;1.58;;;;;;;;;;4941140;28;21115;-73
2021/12/10 01:29:33;;;;;;;1.50;1.38;;;;;;;;;;4942183;28;20489;-71
2021/12/10 01:32:01;;;;;;;1.85;1.40;;;;;;;;;;4940846;28;20549;-72
2021/12/10 01:34:27;;;;;;;6.50;1.50;;;;;;;;;;4940852;28;20039;-72
2021/12/10 01:36:53;;;;;;;3.78;1.58;;;;;;;;;;4941427;28;20462;-72
2021/12/10 01:39:22;;;;;;;5.63;1.55;;;;;;;;;;4941135;28;20122;-73
2021/12/10 01:41:55;;;;;;;8.95;1.95;;;;;;;;;;4940683;28;20054;-73
2021/12/10 01:44:30;;;;;;;4.30;1.60;;;;;;;;;;4940612;28;20031;-72
2021/12/10 01:47:00;;;;;;;2.90;1.30;;;;;;;;;;4941140;28;20050;-72
2021/12/10 01:49:26;;;;;;;3.33;1.30;;;;;;;;;;4941298;28;20039;-73
2021/12/10 01:51:52;;;;;;;4.00;1.70;;;;;;;;;;4940773;28;20050;-73
2021/12/10 01:54:31;;;;;;;5.43;1.48;;;;;;;;;;4940157;28;20138;-72
2021/12/10 01:56:59;;;;;;;5.30;1.45;;;;;;;;;;4940988;28;20071;-73
2021/12/10 01:59:27;;;;;;;4.70;2.03;;;;;;;;;;4940838;28;20074;-73
2021/12/10 02:01:57;;;;;;;1.77;1.33;;;;;;;;;;4940989;28;20046;-73
2021/12/10 02:04:26;;;;;;;4.93;1.70;;;;;;;;;;4940608;28;20039;-72
2021/12/10 02:06:53;;;;;;;9.18;1.73;;;;;;;;;;4938915;28;20039;-72
2021/12/10 02:09:20;;;;;;;3.65;1.90;;;;;;;;;;4940400;28;20058;-72
2021/12/10 02:11:45;;;;;;;2.47;1.85;;;;;;;;;;4941579;28;20047;-72
2021/12/10 02:14:11;;;;;;;2.67;1.90;;;;;;;;;;4939899;28;20050;-72
2021/12/10 02:16:38;;;;;;;3.33;1.52;;;;;;;;;;4940510;28;20031;-72
2021/12/10 02:19:06;;;;;;;2.05;1.63;;;;;;;;;;4940177;28;20058;-72
2021/12/10 02:21:34;;;;;;;2.22;1.67;;;;;;;;;;4940372;28;20514;-73
2021/12/10 02:24:02;;;;;;;2.40;1.70;;;;;;;;;;4938977;28;20078;-72
2021/12/10 02:26:49;;;;;;;3.65;2.17;;;;;;;;;;4940183;28;20552;-72
2021/12/10 02:29:17;;;;;;;5.78;2.40;;;;;;;;;;4954973;28;20154;-73
2021/12/10 02:31:42;;;;;;;3.15;1.90;;;;;;;;;;4940372;28;20065;-73
2021/12/10 02:34:08;;;;;;;2.85;2.45;;;;;;;;;;4940156;28;20943;-72
2021/12/10 02:36:39;;;;;;;2.65;2.10;;;;;;;;;;4939057;28;20050;-73
2021/12/10 02:39:05;;;;;;;2.17;1.92;;;;;;;;;;4940145;28;20046;-72
2021/12/10 02:41:32;;;;;;;5.72;2.40;;;;;;;;;;4940255;28;20043;-73
2021/12/10 02:44:01;;;;;;;2.35;2.15;;;;;;;;;;4939872;28;20047;-72
2021/12/10 02:46:28;;;;;;;4.22;2.47;;;;;;;;;;4941808;28;20281;-72
2021/12/10 02:48:54;;;;;;;3.78;2.42;;;;;;;;;;4939668;28;20039;-72
2021/12/10 02:51:20;;;;;;;3.33;2.03;;;;;;;;;;4940050;28;20090;-72
2021/12/10 02:53:46;;;;;;;5.90;2.25;;;;;;;;;;4935320;28;20050;-72
2021/12/10 02:56:15;;;;;;;5.50;2.67;;;;;;;;;;4941988;28;20031;-73
2021/12/10 02:58:41;;;;;;;3.83;2.60;;;;;;;;;;4939257;28;20129;-74
2021/12/10 03:01:10;;;;;;;8.23;2.85;;;;;;;;;;4942069;28;20091;-72
2021/12/10 03:03:38;;;;;;;6.50;3.42;;;;;;;;;;4940171;28;20475;-72
2021/12/10 03:06:09;;;;;;;8.57;3.65;;;;;;;;;;4942471;28;20042;-72
2021/12/10 03:08:35;;;;;;;5.40;3.63;;;;;;;;;;4940559;28;20063;-72
2021/12/10 03:11:01;;;;;;;6.90;4.40;;;;;;;;;;4939962;28;21226;-72
2021/12/10 03:13:26;;;;;;;9.77;5.35;;;;;;;;;;4940393;28;20042;-72
2021/12/10 03:15:52;;;;;;;12.18;6.03;;;;;;;;;;4939968;28;20486;-73
2021/12/10 03:18:18;;;;;;;10.88;6.18;;;;;;;;;;4940452;28;20114;-72
2021/12/10 03:20:44;;;;;;;10.73;5.93;;;;;;;;;;4942465;28;20172;-72
2021/12/10 03:23:11;;;;;;;8.70;5.80;;;;;;;;;;4942915;28;20150;-73
2021/12/10 03:25:37;;;;;;;12.95;6.78;;;;;;;;;;4942466;28;20043;-72
2021/12/10 03:28:03;;;;;;;14.15;8.02;;;;;;;;;;4942931;28;20040;-72
2021/12/10 03:30:33;;;;;;;13.90;6.68;;;;;;;;;;4943511;28;20031;-72
2021/12/10 03:32:58;;;;;;;11.75;7.53;;;;;;;;;;4942754;28;20042;-72
2021/12/10 03:35:34;;;;;;;6.22;4.32;;;;;;;;;;4942469;28;20035;-73
2021/12/10 03:38:03;;;;;;;7.07;4.30;;;;;;;;;;4941445;28;20039;-72
2021/12/10 03:40:30;;;;;;;13.88;5.30;;;;;;;;;;4943396;28;20406;-72
2021/12/10 03:42:58;;;;;;;12.30;7.30;;;;;;;;;;4942617;28;20381;-72
2021/12/10 03:45:28;;;;;;;14.68;8.07;;;;;;;;;;4942158;28;20038;-73
2021/12/10 03:47:53;;;;;;;12.02;6.57;;;;;;;;;;4942452;28;20047;-72
2021/12/10 03:50:29;;;;;;;12.40;6.88;;;;;;;;;;4942953;28;20049;-73
2021/12/10 03:52:55;;;;;;;16.42;8.60;;;;;;;;;;4942097;28;20766;-73
2021/12/10 03:55:22;;;;;;;21.40;10.93;;;;;;;;;;4942621;28;20489;-72
2021/12/10 03:57:48;;;;;;;19.90;10.85;;;;;;;;;;4942211;28;20062;-72
2021/12/10 04:00:15;;;;;;;21.35;11.07;;;;;;;;;;4942248;28;20039;-73
2021/12/10 04:02:40;;;;;;;27.73;11.60;;;;;;;;;;4942804;28;20096;-74
2021/12/10 04:05:06;;;;;;;30.55;11.48;;;;;;;;;;4942137;28;20042;-72
2021/12/10 04:07:32;;;;;;;29.15;12.02;;;;;;;;;;4942344;28;20046;-72
2021/12/10 04:09:57;;;;;;;21.35;10.77;;;;;;;;;;4942219;28;20042;-72
2021/12/10 04:12:23;;;;;;;26.83;12.00;;;;;;;;;;4942780;28;20092;-72
2021/12/10 04:14:53;;;;;;;35.47;14.95;;;;;;;;;;4940626;28;20035;-73
2021/12/10 04:17:21;;;;;;;37.90;15.05;;;;;;;;;;4941811;28;20039;-72
2021/12/10 04:19:49;;;;;;;41.20;16.35;;;;;;;;;;4941829;28;20055;-73
2021/12/10 04:22:17;;;;;;;22.25;10.25;;;;;;;;;;4942383;28;20125;-73
2021/12/10 04:24:43;;;;;;;26.85;12.23;;;;;;;;;;4942141;28;20045;-72
2021/12/10 04:27:12;;;;;;;19.38;9.82;;;;;;;;;;4942382;28;20043;-72
2021/12/10 04:29:38;;;;;;;36.63;15.77;;;;;;;;;;4941490;28;20118;-73
2021/12/10 04:32:05;;;;;;;29.65;12.75;;;;;;;;;;4942284;28;20093;-73
2021/12/10 04:34:30;;;;;;;29.77;13.90;;;;;;;;;;4942055;28;20485;-72
2021/12/10 04:36:59;;;;;;;34.72;16.38;;;;;;;;;;4941888;28;20043;-72
2021/12/10 04:39:25;;;;;;;41.40;18.35;;;;;;;;;;4941959;28;20545;-73
2021/12/10 04:41:51;;;;;;;49.92;24.10;;;;;;;;;;4942250;28;20039;-73
2021/12/10 04:44:17;;;;;;;43.45;18.20;;;;;;;;;;4941583;28;20742;-72
2021/12/10 04:46:43;;;;;;;33.55;14.75;;;;;;;;;;4941674;28;20031;-72
2021/12/10 04:49:14;;;;;;;40.70;19.48;;;;;;;;;;4940656;28;20398;-73
2021/12/10 04:51:44;;;;;;;33.10;14.48;;;;;;;;;;4940391;28;21056;-73
2021/12/10 04:54:11;;;;;;;27.95;13.98;;;;;;;;;;4940486;28;20043;-73
2021/12/10 04:56:38;;;;;;;29.70;14.30;;;;;;;;;;4944073;28;20050;-73
2021/12/10 04:59:06;;;;;;;26.30;13.25;;;;;;;;;;4945427;28;20035;-73
2021/12/10 05:01:32;;;;;;;23.33;12.05;;;;;;;;;;4945965;28;20496;-73
2021/12/10 05:03:58;;;;;;;30.60;15.27;;;;;;;;;;4940821;28;20537;-73
2021/12/10 05:06:23;;;;;;;23.75;12.05;;;;;;;;;;4939834;28;20039;-73
2021/12/10 05:08:49;;;;;;;23.15;12.60;;;;;;;;;;4946699;28;20442;-73
2021/12/10 05:11:15;;;;;;;24.23;12.52;;;;;;;;;;4946175;28;20436;-73
2021/12/10 05:13:45;;;;;;;30.55;12.23;;;;;;;;;;4945143;28;20805;-73
2021/12/10 05:16:11;;;;;;;28.02;12.82;;;;;;;;;;4947074;28;20053;-73
2021/12/10 05:18:40;;;;;;;23.45;12.10;;;;;;;;;;4945376;28;20502;-73
2021/12/10 05:21:09;;;;;;;21.70;11.95;;;;;;;;;;4948377;28;20126;-73
2021/12/10 05:23:35;;;;;;;26.85;11.77;;;;;;;;;;4946586;28;20035;-71
2021/12/10 05:26:02;;;;;;;24.05;11.85;;;;;;;;;;4945212;28;20496;-70
2021/12/10 05:28:27;;;;;;;22.42;11.13;;;;;;;;;;4942043;28;20127;-71
2021/12/10 05:30:55;;;;;;;24.08;12.68;;;;;;;;;;4942672;28;20142;-71
2021/12/10 05:33:23;;;;;;;24.33;13.60;;;;;;;;;;4940489;28;20038;-71
2021/12/10 05:35:49;;;;;;;29.13;14.48;;;;;;;;;;4940128;28;20031;-70
2021/12/10 05:38:17;;;;;;;38.30;15.52;;;;;;;;;;4941998;28;20402;-72
2021/12/10 05:40:45;;;;;;;29.40;14.55;;;;;;;;;;4941410;28;20494;-72
2021/12/10 05:43:10;;;;;;;31.45;14.65;;;;;;;;;;4940497;28;20070;-72
2021/12/10 05:45:36;;;;;;;29.52;13.38;;;;;;;;;;4940163;28;20161;-72
2021/12/10 05:48:03;;;;;;;32.95;12.68;;;;;;;;;;4939920;28;20031;-76
2021/12/10 05:50:30;;;;;;;20.88;11.60;;;;;;;;;;4940692;28;20100;-73
2021/12/10 05:52:56;;;;;;;27.77;13.07;;;;;;;;;;4940405;28;20042;-74
2021/12/10 05:55:23;;;;;;;22.20;9.43;;;;;;;;;;4941877;28;20039;-76
2021/12/10 05:57:48;;;;;;;27.95;12.52;;;;;;;;;;4940636;28;20039;-76
2021/12/10 06:00:37;;;;;;;27.77;12.35;;;;;;;;;;4941292;28;20031;-74
2021/12/10 06:03:05;;;;;;;20.98;10.88;;;;;;;;;;4941229;28;20057;-74
2021/12/10 06:05:32;;;;;;;22.92;11.00;;;;;;;;;;4940993;28;20097;-73
2021/12/10 06:07:58;;;;;;;24.83;12.93;;;;;;;;;;4941064;28;20043;-74
2021/12/10 06:10:25;;;;;;;27.83;12.77;;;;;;;;;;4940057;28;20047;-72
2021/12/10 06:16:28;;;;;;;16.67;9.45;;;;;;;;;;5139551;23;20061;-74
2021/12/10 06:18:54;;;;;;;19.38;9.50;;;;;;;;;;4959801;28;20043;-74
2021/12/10 06:21:20;;;;;;;15.93;10.00;;;;;;;;;;4959760;28;20103;-74
2021/12/10 06:23:46;;;;;;;16.60;9.50;;;;;;;;;;4959183;28;20030;-73
2021/12/10 06:26:12;;;;;;;17.40;10.65;;;;;;;;;;4959418;28;20061;-73
2021/12/10 06:28:38;;;;;;;15.73;10.68;;;;;;;;;;4958912;28;20053;-73
2021/12/10 06:31:04;;;;;;;19.15;10.40;;;;;;;;;;4959053;28;20046;-73
2021/12/10 06:33:31;;;;;;;18.48;10.43;;;;;;;;;;4957342;28;20505;-73
2021/12/10 06:36:01;;;;;;;17.90;10.77;;;;;;;;;;4957865;28;20039;-74
2021/12/10 06:38:27;;;;;;;22.13;9.02;;;;;;;;;;4957645;28;20509;-74
2021/12/10 06:40:54;;;;;;;30.98;10.07;;;;;;;;;;4957390;28;20409;-74
2021/12/10 06:43:21;;;;;;;23.17;8.95;;;;;;;;;;4957591;28;20122;-74
2021/12/10 06:45:48;;;;;;;22.13;9.27;;;;;;;;;;4957732;28;21056;-74
2021/12/10 06:48:17;;;;;;;26.73;10.30;;;;;;;;;;4951536;28;20509;-73
2021/12/10 06:50:52;;;;;;;14.48;9.05;;;;;;;;;;4959274;28;20145;-73
2021/12/10 06:53:19;;;;;;;12.27;7.47;;;;;;;;;;4959384;28;20425;-76
2021/12/10 06:55:45;;;;;;;13.23;8.50;;;;;;;;;;4962933;28;20043;-75
2021/12/10 06:58:11;;;;;;;16.20;9.48;;;;;;;;;;4963945;28;20038;-74
2021/12/10 07:00:47;;;;;;;14.10;8.85;;;;;;;;;;4961218;28;20042;-77
2021/12/10 07:03:16;;;;;;;14.18;9.20;;;;;;;;;;4960985;28;20129;-74
2021/12/10 07:05:42;;;;;;;13.90;9.02;;;;;;;;;;4960793;28;20034;-74
2021/12/10 07:08:08;;;;;;;16.92;9.43;;;;;;;;;;4962004;28;20089;-77
2021/12/10 07:10:34;;;;;;;12.02;7.93;;;;;;;;;;4962325;28;20453;-74
2021/12/10 07:13:03;;;;;;;14.75;8.85;;;;;;;;;;4962049;28;20035;-74
2021/12/10 07:15:28;;;;;;;14.15;9.40;;;;;;;;;;4961391;28;20035;-77
2021/12/10 07:17:54;;;;;;;16.83;10.18;;;;;;;;;;4960816;28;20880;-73
2021/12/10 07:20:22;;;;;;;19.80;10.60;;;;;;;;;;4962092;28;20034;-74
2021/12/10 07:22:49;;;;;;;13.82;9.00;;;;;;;;;;4960419;28;20066;-73
2021/12/10 07:25:15;;;;;;;13.95;9.82;;;;;;;;;;4960668;28;20035;-75
2021/12/10 07:27:40;;;;;;;13.77;8.60;;;;;;;;;;4962110;28;20049;-76
2021/12/10 07:30:07;;;;;;;13.75;8.25;;;;;;;;;;4963538;28;20031;-76
2021/12/10 07:32:33;;;;;;;10.20;7.20;;;;;;;;;;4964520;28;20031;-75
2021/12/10 07:34:59;;;;;;;14.20;8.32;;;;;;;;;;4960234;28;20115;-75
2021/12/10 07:37:25;;;;;;;9.93;7.38;;;;;;;;;;4961754;28;20050;-74
2021/12/10 07:39:50;;;;;;;9.70;7.35;;;;;;;;;;4961791;28;20055;-75
2021/12/10 07:42:16;;;;;;;11.55;7.85;;;;;;;;;;4962684;28;20117;-73
2021/12/10 07:44:41;;;;;;;13.95;7.38;;;;;;;;;;4961406;28;20031;-74
2021/12/10 07:47:12;;;;;;;10.23;6.53;;;;;;;;;;4961367;28;20070;-73
2021/12/10 07:49:38;;;;;;;7.32;5.25;;;;;;;;;;4961802;28;20408;-73
2021/12/10 07:52:14;;;;;;;9.10;5.57;;;;;;;;;;4961495;28;20066;-73
2021/12/10 07:54:40;;;;;;;8.57;5.05;;;;;;;;;;4961188;28;20038;-75
2021/12/10 07:57:06;;;;;;;5.90;4.68;;;;;;;;;;4961510;28;20042;-73
2021/12/10 07:59:31;;;;;;;7.20;3.65;;;;;;;;;;4961336;28;20912;-75
2021/12/10 08:01:57;;;;;;;6.97;4.18;;;;;;;;;;4961369;28;20130;-78
2021/12/10 08:04:22;;;;;;;4.13;2.97;;;;;;;;;;4961304;28;20042;-76
2021/12/10 08:06:48;;;;;;;4.32;3.90;;;;;;;;;;4961579;28;20038;-77
2021/12/10 08:09:13;;;;;;;8.48;4.03;;;;;;;;;;4960900;28;20073;-76
2021/12/10 08:11:39;;;;;;;5.18;4.07;;;;;;;;;;4960048;28;20034;-76
2021/12/10 08:14:05;;;;;;;6.85;3.88;;;;;;;;;;4959892;28;20023;-76
2021/12/10 08:16:31;;;;;;;3.88;3.35;;;;;;;;;;4960514;28;20100;-75
2021/12/10 08:18:57;;;;;;;2.97;2.55;;;;;;;;;;4960128;28;20110;-73
2021/12/10 08:21:24;;;;;;;3.67;2.67;;;;;;;;;;4959177;28;20062;-78
2021/12/10 08:23:50;;;;;;;2.30;2.10;;;;;;;;;;4960302;28;20039;-75
2021/12/10 08:26:16;;;;;;;2.55;2.33;;;;;;;;;;4960596;28;20105;-76
2021/12/10 08:28:42;;;;;;;6.10;2.80;;;;;;;;;;4960624;28;20035;-76
2021/12/10 08:31:08;;;;;;;3.03;2.70;;;;;;;;;;4960424;28;20042;-76
2021/12/10 08:33:34;;;;;;;4.25;3.40;;;;;;;;;;4960631;28;20049;-75
2021/12/10 08:36:08;;;;;;;4.05;2.60;;;;;;;;;;4961144;28;20051;-75
2021/12/10 08:38:33;;;;;;;2.72;2.45;;;;;;;;;;4959542;28;20049;-76
2021/12/10 08:41:04;;;;;;;3.63;2.75;;;;;;;;;;4960618;28;20042;-74
2021/12/10 08:43:30;;;;;;;2.83;2.60;;;;;;;;;;4960913;28;20496;-74
2021/12/10 08:45:57;;;;;;;3.55;2.42;;;;;;;;;;4960641;28;20035;-75
2021/12/10 08:48:26;;;;;;;3.33;2.55;;;;;;;;;;4961934;28;20088;-76
2021/12/10 08:50:54;;;;;;;4.10;2.90;;;;;;;;;;4960878;28;20129;-76
2021/12/10 08:53:19;;;;;;;5.15;3.28;;;;;;;;;;4960855;28;20069;-76
2021/12/10 08:55:48;;;;;;;3.88;3.00;;;;;;;;;;4959733;28;20066;-73
2021/12/10 08:58:15;;;;;;;3.90;3.13;;;;;;;;;;4962169;28;20042;-78
2021/12/10 09:00:46;;;;;;;5.00;3.08;;;;;;;;;;4960493;28;20049;-76
2021/12/10 09:03:11;;;;;;;4.63;3.63;;;;;;;;;;4961018;28;20042;-75
2021/12/10 09:05:37;;;;;;;4.90;3.28;;;;;;;;;;4962026;28;20421;-79
2021/12/10 09:08:03;;;;;;;3.88;3.10;;;;;;;;;;4960945;28;20100;-78
2021/12/10 09:10:33;;;;;;;7.47;4.72;;;;;;;;;;4961080;28;20042;-79
2021/12/10 09:13:00;;;;;;;4.90;3.30;;;;;;;;;;4962992;28;20038;-77
2021/12/10 09:15:27;;;;;;;5.15;3.47;;;;;;;;;;4963287;28;20121;-77
2021/12/10 09:17:57;;;;;;;3.78;2.95;;;;;;;;;;4960772;28;20386;-74
2021/12/10 09:20:31;;;;;;;4.90;3.10;;;;;;;;;;4962113;28;20035;-78
2021/12/10 09:22:57;;;;;;;3.70;2.90;;;;;;;;;;4965335;28;20121;-76
2021/12/10 09:25:22;;;;;;;4.57;2.85;;;;;;;;;;4967461;28;20554;-73
2021/12/10 09:27:48;;;;;;;8.45;3.22;;;;;;;;;;4966814;28;20037;-76
2021/12/10 09:30:17;;;;;;;4.57;3.03;;;;;;;;;;4972582;28;20030;-72
2021/12/10 09:32:44;;;;;;;3.05;2.55;;;;;;;;;;4997034;28;20034;-73
2021/12/10 09:35:12;;;;;;;4.28;3.08;;;;;;;;;;4967877;28;21074;-73
2021/12/10 09:37:38;;;;;;;4.90;3.17;;;;;;;;;;4965616;28;20049;-75
2021/12/10 09:40:10;;;;;;;2.60;2.40;;;;;;;;;;4961435;28;20548;-74
2021/12/10 09:42:35;;;;;;;3.25;2.50;;;;;;;;;;4960552;28;20569;-75
2021/12/10 09:45:02;;;;;;;3.50;2.53;;;;;;;;;;4961536;28;20070;-76
2021/12/10 09:47:29;;;;;;;4.80;3.08;;;;;;;;;;4954610;28;20448;-74
2021/12/10 09:49:55;;;;;;;4.15;3.00;;;;;;;;;;4962817;28;20141;-73
2021/12/10 09:52:23;;;;;;;2.75;2.25;;;;;;;;;;4963660;28;20541;-73
2021/12/10 09:54:49;;;;;;;3.63;2.38;;;;;;;;;;4961262;28;20121;-76
2021/12/10 09:57:22;;;;;;;4.53;2.40;;;;;;;;;;4961608;28;20113;-75
2021/12/10 09:59:51;;;;;;;2.63;2.42;;;;;;;;;;4961236;28;20035;-75
2021/12/10 10:02:18;;;;;;;2.20;2.00;;;;;;;;;;4960885;28;20031;-72
2021/12/10 10:04:49;;;;;;;2.20;2.00;;;;;;;;;;4949914;28;20041;-75
2021/12/10 10:07:23;;;;;;;3.92;2.40;;;;;;;;;;4959474;28;20072;-75
2021/12/10 10:09:51;;;;;;;2.13;1.92;;;;;;;;;;4959965;28;20026;-74
2021/12/10 10:12:30;;;;;;;3.17;2.20;;;;;;;;;;4959887;28;20047;-75
2021/12/10 10:14:57;;;;;;;2.67;2.13;;;;;;;;;;4958749;28;20597;-74
2021/12/10 10:17:23;;;;;;;3.38;2.10;;;;;;;;;;4960063;28;20166;-75
2021/12/10 10:19:51;;;;;;;2.30;2.10;;;;;;;;;;4959627;28;20035;-74
2021/12/10 10:22:22;;;;;;;3.17;2.30;;;;;;;;;;4959759;28;20097;-75
2021/12/10 10:24:48;;;;;;;4.63;2.13;;;;;;;;;;4959648;28;20062;-75
2021/12/10 10:27:20;;;;;;;3.45;2.15;;;;;;;;;;4960223;28;20477;-75
2021/12/10 10:29:54;;;;;;;2.00;1.67;;;;;;;;;;4962888;28;20427;-76
2021/12/10 10:32:32;;;;;;;3.00;2.03;;;;;;;;;;4962644;28;20034;-74
2021/12/10 10:35:04;;;;;;;4.38;2.13;;;;;;;;;;4962583;28;20057;-73
2021/12/10 10:37:32;;;;;;;2.28;2.10;;;;;;;;;;4963155;28;20035;-73
2021/12/10 10:39:59;;;;;;;2.00;1.85;;;;;;;;;;4962715;28;20455;-76
2021/12/10 10:42:27;;;;;;;4.00;2.60;;;;;;;;;;4961505;28;20080;-75
2021/12/10 10:44:58;;;;;;;5.65;3.03;;;;;;;;;;4962007;28;20066;-74
2021/12/10 10:47:24;;;;;;;3.55;2.58;;;;;;;;;;4961756;28;20084;-75
2021/12/10 10:50:21;;;;;;;6.35;2.70;;;;;;;;;;4962526;28;20034;-74
2021/12/10 10:52:52;;;;;;;4.20;2.00;;;;;;;;;;4962103;28;20042;-76
2021/12/10 10:55:25;;;;;;;3.00;2.50;;;;;;;;;;4966142;28;20046;-76
2021/12/10 10:57:57;;;;;;;2.42;2.00;;;;;;;;;;4968816;28;20063;-76
2021/12/10 11:00:29;;;;;;;4.80;2.70;;;;;;;;;;4966218;28;20450;-76
2021/12/10 11:03:03;;;;;;;3.97;2.83;;;;;;;;;;4968661;28;20065;-76
2021/12/10 11:05:30;;;;;;;3.63;2.78;;;;;;;;;;4969647;28;20042;-76
2021/12/10 11:08:00;;;;;;;3.10;2.40;;;;;;;;;;4968324;28;20039;-74
2021/12/10 11:10:32;;;;;;;4.90;2.83;;;;;;;;;;4962313;28;20035;-74
2021/12/10 11:13:09;;;;;;;2.92;2.30;;;;;;;;;;4963178;28;20043;-74
2021/12/10 11:15:35;;;;;;;3.05;2.47;;;;;;;;;;4962048;28;20046;-74
2021/12/10 11:18:00;;;;;;;2.65;2.42;;;;;;;;;;4962202;28;20100;-74
2021/12/10 11:20:32;;;;;;;4.35;2.50;;;;;;;;;;4962020;28;20092;-72
2021/12/10 11:23:05;;;;;;;2.97;2.30;;;;;;;;;;4962212;28;20149;-75
2021/12/10 11:25:44;;;;;;;3.85;2.35;;;;;;;;;;4962246;28;20035;-77
2021/12/10 11:28:18;;;;;;;3.97;2.30;;;;;;;;;;4962375;28;20041;-73
2021/12/10 11:30:48;;;;;;;2.40;2.20;;;;;;;;;;4952368;28;20068;-73
2021/12/10 11:33:16;;;;;;;3.80;2.05;;;;;;;;;;4961142;28;20729;-73
2021/12/10 11:36:05;;;;;;;2.90;2.17;;;;;;;;;;4962431;28;20454;-73
2021/12/10 11:38:33;;;;;;;2.75;2.10;;;;;;;;;;4961787;28;20045;-75
2021/12/10 11:41:05;;;;;;;2.70;2.20;;;;;;;;;;4961286;28;20046;-73
2021/12/10 11:48:47;;;;;;;3.25;2.05;;;;;;;;;;4962248;28;20516;-74
2021/12/10 11:51:55;;;;;;;2.72;2.10;;;;;;;;;;4961568;28;20035;-75
2021/12/10 11:54:38;;;;;;;2.25;2.05;;;;;;;;;;4961406;28;20043;-74
2021/12/10 11:57:19;;;;;;;3.55;2.15;;;;;;;;;;4964916;28;20049;-72
2021/12/10 11:59:53;;;;;;;2.70;2.45;;;;;;;;;;4961306;28;20031;-74
2021/12/10 12:02:25;;;;;;;2.30;2.10;;;;;;;;;;4961134;28;20247;-73
2021/12/10 12:04:55;;;;;;;;;;;;;;;;;;4961431;28;20038;-73
2021/12/10 12:07:30;;;;;;;3.47;2.42;;;;;;;;;;4960774;28;19950;-75
2021/12/10 12:09:58;;;;;;;3.67;2.75;;;;;;;;;;4961558;28;20188;-73
2021/12/10 12:12:37;;;;;;;3.33;2.58;;;;;;;;;;4961120;28;20035;-77
2021/12/10 12:15:12;;;;;;;6.05;2.78;;;;;;;;;;4960376;28;20560;-73
2021/12/10 12:17:43;;;;;;;2.95;2.35;;;;;;;;;;4961771;28;20112;-78
2021/12/10 12:20:25;;;;;;;2.88;2.67;;;;;;;;;;4960660;28;20054;-73
2021/12/10 12:25:49;;;;;;;3.80;2.55;;;;;;;;;;4960805;28;20030;-74
2021/12/10 12:28:17;;;;;;;4.07;2.75;;;;;;;;;;4961154;28;20035;-75
2021/12/10 12:31:18;;;;;;;4.30;3.17;;;;;;;;;;4943571;28;20611;-75
2021/12/10 12:33:57;;;;;;;3.65;2.90;;;;;;;;;;4961351;28;20026;-73
2021/12/10 12:36:31;;;;;;;3.50;2.58;;;;;;;;;;4960702;28;20085;-74
2021/12/10 12:38:57;;;;;;;4.40;2.50;;;;;;;;;;4960908;28;20031;-72
2021/12/10 12:41:32;;;;;;;9.23;3.13;;;;;;;;;;4961248;28;20031;-74
2021/12/10 12:44:15;;;;;;;3.85;2.60;;;;;;;;;;4959322;28;20081;-72
2021/12/10 12:47:04;;;;;;;5.43;2.85;;;;;;;;;;4957952;28;20034;-73
2021/12/10 12:49:48;;;;;;;5.97;3.17;;;;;;;;;;4961629;28;20048;-72
2021/12/10 12:52:18;;;;;;;5.03;2.55;;;;;;;;;;4946169;28;20049;-75
2021/12/10 12:55:08;;;;;;;6.55;3.03;;;;;;;;;;4960178;28;20043;-73
2021/12/10 12:57:40;;;;;;;2.47;2.28;;;;;;;;;;4953270;28;20762;-74
2021/12/10 13:00:07;;;;;;;;;;;;;;;;;;4959358;28;20042;-73
2021/12/10 13:02:34;;;;;;;3.85;2.72;;;;;;;;;;4961116;28;19921;-72
2021/12/10 13:04:59;;;;;;;4.50;2.40;;;;;;;;;;4959834;28;20042;-72
2021/12/10 13:07:27;;;;;;;4.13;2.38;;;;;;;;;;4961079;28;20043;-72
2021/12/10 13:09:56;;;;;;;3.58;2.65;;;;;;;;;;4962643;28;20783;-72
2021/12/10 13:15:00;;;;;;;3.17;2.88;;;;;;;;;;4959652;28;20034;-72
2021/12/10 13:17:35;;;;;;;7.38;2.97;;;;;;;;;;4960013;28;20107;-73
2021/12/10 13:20:09;;;;;;;2.72;2.30;;;;;;;;;;4959713;28;20045;-75
2021/12/10 13:22:36;;;;;;;4.07;3.05;;;;;;;;;;4960671;28;20045;-73
2021/12/10 13:25:11;;;;;;;4.20;3.60;;;;;;;;;;4958186;28;20064;-73
2021/12/10 13:27:37;;;;;;;4.20;3.50;;;;;;;;;;4960221;28;20043;-75
2021/12/10 13:30:11;;;;;;;9.82;3.60;;;;;;;;;;4959658;28;20045;-74
2021/12/10 13:32:36;;;;;;;5.80;3.50;;;;;;;;;;4960144;28;20035;-73
2021/12/10 13:35:03;;;;;;;6.30;3.67;;;;;;;;;;4960432;28;20333;-76
2021/12/10 13:37:29;;;;;;;33.03;5.03;;;;;;;;;;4958835;28;20039;-75
2021/12/10 13:39:58;;;;;;;7.53;4.40;;;;;;;;;;4959670;28;20192;-75
2021/12/10 13:42:25;;;;;;;7.03;5.47;;;;;;;;;;4957225;28;20033;-75
2021/12/10 13:44:55;;;;;;;11.40;6.20;;;;;;;;;;4957611;28;20047;-75
2021/12/10 13:47:30;;;;;;;8.70;4.95;;;;;;;;;;4958115;28;21058;-75
2021/12/10 13:49:58;;;;;;;6.03;3.90;;;;;;;;;;4957951;28;20108;-74
2021/12/10 13:52:39;;;;;;;5.28;3.65;;;;;;;;;;4958030;28;20042;-74
2021/12/10 13:55:18;;;;;;;7.07;3.78;;;;;;;;;;4958271;28;20041;-74
2021/12/10 13:57:44;;;;;;;4.88;3.60;;;;;;;;;;4961085;28;20393;-72
2021/12/10 14:00:13;;;;;;;7.60;3.75;;;;;;;;;;4959530;28;20096;-74
2021/12/10 14:02:47;;;;;;;8.32;3.63;;;;;;;;;;4959463;28;20122;-73
2021/12/10 14:05:27;;;;;;;5.38;4.10;;;;;;;;;;4961346;28;20033;-75
2021/12/10 14:08:19;;;;;;;6.78;3.33;;;;;;;;;;4964720;28;20054;-71
2021/12/10 14:10:47;;;;;;;5.80;4.00;;;;;;;;;;4963791;28;20046;-72
2021/12/10 14:13:31;;;;;;;5.78;4.80;;;;;;;;;;4962041;28;20141;-73
2021/12/10 14:16:05;;;;;;;6.53;5.25;;;;;;;;;;4961946;28;20476;-72
2021/12/10 14:18:45;;;;;;;5.25;4.60;;;;;;;;;;4962354;28;20138;-72
2021/12/10 14:21:17;;;;;;;11.25;5.65;;;;;;;;;;4963490;28;20115;-72
2021/12/10 14:23:54;;;;;;;;;;;;;;;;;;4963096;28;20621;-72
2021/12/10 14:26:30;;;;;;;5.72;4.38;;;;;;;;;;4963844;28;19925;-72
2021/12/10 14:29:01;;;;;;;5.90;3.97;;;;;;;;;;4963998;28;20042;-73
2021/12/10 14:31:47;;;;;;;5.95;3.90;;;;;;;;;;4963406;28;20038;-73
2021/12/10 14:37:14;;;;;;;8.85;5.05;;;;;;;;;;5038332;28;20059;-72
2021/12/10 14:40:10;;;;;;;7.80;4.35;;;;;;;;;;5038988;28;20133;-72
2021/12/10 14:42:36;;;;;;;8.80;4.90;;;;;;;;;;5040311;28;20126;-73
2021/12/10 14:45:11;;;;;;;7.03;4.80;;;;;;;;;;5033758;28;20131;-75
2021/12/10 14:47:37;;;;;;;6.20;4.57;;;;;;;;;;5041477;28;20040;-75
2021/12/10 14:50:06;;;;;;;6.40;4.43;;;;;;;;;;5040642;28;20447;-73
2021/12/10 14:52:35;;;;;;;6.63;4.55;;;;;;;;;;5039974;28;20059;-75
2021/12/10 14:55:06;;;;;;;8.13;3.42;;;;;;;;;;5040337;28;20079;-73
2021/12/10 14:58:00;;;;;;;7.63;4.20;;;;;;;;;;5040786;28;20045;-73
2021/12/10 15:00:35;;;;;;;3.85;3.00;;;;;;;;;;5039687;28;20120;-73
2021/12/10 15:03:05;;;;;;;4.90;3.22;;;;;;;;;;5037528;28;20047;-73
2021/12/10 15:05:45;;;;;;;5.85;3.55;;;;;;;;;;5040015;28;20025;-75
2021/12/10 15:08:31;;;;;;;6.13;2.83;;;;;;;;;;5040248;28;20464;-71
2021/12/10 15:10:58;;;;;;;3.60;2.67;;;;;;;;;;5040365;28;20037;-70
2021/12/10 15:13:30;;;;;;;5.10;3.00;;;;;;;;;;5039247;28;20037;-71
2021/12/10 15:16:33;;;;;;;2.90;1.80;;;;;;;;;;5041754;28;20037;-70
2021/12/10 15:19:25;;;;;;;2.28;1.58;;;;;;;;;;5004211;28;20134;-70
2021/12/10 15:21:55;;;;;;;;;;;;;;;;;;5042847;28;20041;-69
2021/12/10 15:24:36;;;;;;;4.05;1.48;;;;;;;;;;5042834;28;20390;-69